Time;durP1;ratioP1;P1;durP2;ratioP2;P2;SDS_P1;SDS_P2;PMS_P1;PMS_P2;Temp;Humidity;BMP_temperature;BMP_pressure;BME280_temperature;BME280_humidity;BME280_pressure;Samples;Min_cycle;Max_cycle;Signal;HPM_P1;HPM_P2
2022/07/02 00:00:02;;;;;;;5.37;4.83;;;13.10;99.90;;;11.72;93.28;98649.06;5052370;28;21461;-78
2022/07/02 00:02:34;;;;;;;6.30;5.80;;;13.00;99.90;;;11.89;93.86;98682.81;5052973;28;20464;-77
2022/07/02 00:05:05;;;;;;;5.90;5.40;;;13.00;99.90;;;11.80;94.96;98683.22;5073516;28;20460;-77
2022/07/02 00:07:33;;;;;;;6.40;5.90;;;12.90;99.90;;;11.70;94.43;98670.97;5080980;28;20462;-75
2022/07/02 00:10:01;;;;;;;6.30;5.70;;;12.80;99.90;;;11.71;95.19;98672.63;5085798;28;20472;-74
2022/07/02 00:12:30;;;;;;;5.73;5.33;;;12.80;99.90;;;11.67;95.13;98678.66;5078793;28;20510;-74
2022/07/02 00:15:00;;;;;;;5.90;5.20;;;12.80;99.90;;;11.58;95.68;98678.84;5067367;28;20488;-74
2022/07/02 00:17:27;;;;;;;6.20;5.70;;;12.70;99.90;;;11.62;95.45;98680.09;5059376;28;20454;-77
2022/07/02 00:19:55;;;;;;;6.03;5.40;;;12.70;99.90;;;11.55;95.61;98678.44;5052702;28;21418;-77
2022/07/02 00:22:22;;;;;;;6.00;5.50;;;12.70;99.90;;;11.53;95.55;98675.91;5056851;28;20949;-76
2022/07/02 00:24:50;;;;;;;5.63;5.17;;;12.70;99.90;;;11.60;95.11;98674.06;5050098;28;20489;-76
2022/07/02 00:27:20;;;;;;;6.60;6.10;;;12.60;99.90;;;11.51;95.65;98672.59;5056472;28;20458;-76
2022/07/02 00:29:52;;;;;;;5.90;5.50;;;12.60;99.90;;;11.45;96.20;98665.31;5057597;28;21009;-76
2022/07/02 00:32:20;;;;;;;6.80;6.30;;;12.60;99.90;;;11.41;96.01;98677.56;5068631;28;20534;-76
2022/07/02 00:34:48;;;;;;;6.00;5.43;;;12.60;99.90;;;11.39;96.60;98669.66;5048802;28;20551;-77
2022/07/02 00:37:15;;;;;;;5.83;5.33;;;12.60;99.90;;;11.38;96.40;98670.69;5048598;28;20463;-74
2022/07/02 00:39:43;;;;;;;6.77;6.27;;;12.50;99.90;;;11.43;96.63;98672.78;5049177;28;20533;-76
2022/07/02 00:42:11;;;;;;;6.57;5.93;;;12.50;99.90;;;11.28;96.90;98672.97;5067022;28;20453;-76
2022/07/02 00:44:41;;;;;;;5.83;5.37;;;12.40;99.90;;;11.28;96.33;98672.97;5054206;28;20533;-76
2022/07/02 00:47:10;;;;;;;6.00;5.50;;;12.40;99.90;;;11.18;96.92;98673.34;5054595;28;20495;-77
2022/07/02 00:49:39;;;;;;;6.50;5.70;;;12.40;99.90;;;11.22;96.52;98671.91;5060742;28;21000;-76
2022/07/02 00:52:08;;;;;;;6.57;5.90;;;12.30;99.90;;;11.22;96.89;98671.91;5058937;28;20476;-78
2022/07/02 00:54:36;;;;;;;6.07;5.57;;;12.30;99.90;;;11.20;97.33;98672.09;5048912;28;20535;-77
2022/07/02 00:57:04;;;;;;;6.67;6.17;;;12.30;99.90;;;11.13;97.78;98675.81;5052685;28;20461;-77
2022/07/02 00:59:33;;;;;;;6.67;6.07;;;12.30;99.90;;;11.05;97.54;98666.84;5049791;28;20554;-76
2022/07/02 01:02:03;;;;;;;6.17;5.63;;;12.20;99.90;;;11.04;97.30;98676.00;5069418;28;20933;-77
2022/07/02 01:04:30;;;;;;;6.00;5.60;;;12.20;99.90;;;11.09;97.11;98679.97;5060764;28;20532;-78
2022/07/02 01:07:05;;;;;;;6.30;5.90;;;12.20;99.90;;;11.08;97.08;98678.28;5051722;28;21350;-76
2022/07/02 01:12:24;;;;;;;6.00;5.50;;;12.10;99.90;;;10.98;98.17;98671.38;5059292;28;21164;-78
2022/07/02 01:14:52;;;;;;;6.70;6.10;;;12.10;99.90;;;10.94;98.47;98678.25;5047321;28;20488;-78
2022/07/02 01:17:22;;;;;;;7.17;6.57;;;12.00;99.90;;;10.94;98.71;98678.25;5054940;28;20508;-78
2022/07/02 01:19:50;;;;;;;6.73;6.13;;;12.00;99.90;;;10.70;98.70;98639.91;5055807;28;20952;-77
2022/07/02 01:22:21;;;;;;;6.67;6.03;;;12.00;99.90;;;10.90;98.84;98682.38;5068143;28;20457;-78
2022/07/02 01:24:51;;;;;;;8.30;6.40;;;12.00;99.90;;;10.82;99.47;98675.28;5054013;28;20961;-77
2022/07/02 01:27:19;;;;;;;8.13;6.83;;;12.00;99.90;;;10.73;98.69;98663.81;5057867;28;21065;-78
2022/07/02 01:29:47;;;;;;;7.20;6.60;;;12.00;99.90;;;10.83;99.42;98686.91;5062059;28;20458;-77
2022/07/02 01:32:15;;;;;;;7.87;7.17;;;12.00;99.90;;;10.87;98.66;98677.41;5057472;28;20912;-78
2022/07/02 01:34:45;;;;;;;6.77;6.10;;;12.00;99.90;;;10.83;99.46;98671.53;5058135;28;20480;-77
2022/07/02 01:37:15;;;;;;;6.27;5.77;;;12.00;99.90;;;10.87;98.59;98672.00;5060872;28;20515;-78
2022/07/02 01:39:45;;;;;;;6.70;6.20;;;12.00;99.90;;;10.82;99.07;98669.03;5057514;28;20529;-77
2022/07/02 01:42:14;;;;;;;7.23;6.57;;;12.00;99.90;;;10.83;99.56;98668.84;5057954;28;20450;-76
2022/07/02 01:44:43;;;;;;;7.93;6.53;;;12.00;99.90;;;10.53;99.93;98643.94;5056524;28;20463;-76
2022/07/02 01:47:11;;;;;;;7.60;6.77;;;11.90;99.90;;;10.74;100.00;98668.19;5063983;28;20509;-76
2022/07/02 01:49:40;;;;;;;6.80;6.30;;;11.90;99.90;;;10.72;99.81;98664.84;5056442;28;21154;-76
2022/07/02 01:52:08;;;;;;;6.80;6.13;;;11.90;99.90;;;10.73;99.74;98671.91;5061103;28;20468;-76
2022/07/02 01:54:36;;;;;;;7.40;6.80;;;11.90;99.90;;;10.69;100.00;98664.41;5068321;28;20565;-77
2022/07/02 01:57:06;;;;;;;6.60;6.10;;;11.80;99.90;;;10.75;99.66;98674.41;5060583;28;21165;-77
2022/07/02 01:59:34;;;;;;;7.17;6.57;;;11.90;99.90;;;10.72;99.22;98675.66;5063456;28;20505;-77
2022/07/02 02:02:02;;;;;;;7.10;6.50;;;11.90;99.90;;;10.67;99.70;98675.41;5061016;28;20465;-77
2022/07/02 02:04:30;;;;;;;7.20;6.60;;;11.80;99.90;;;10.64;100.00;98675.81;5055767;28;21026;-76
2022/07/02 02:06:57;;;;;;;6.57;5.97;;;11.80;99.90;;;10.64;100.00;98675.81;5056261;28;20459;-77
2022/07/02 02:09:25;;;;;;;7.40;6.80;;;11.80;99.90;;;10.61;99.98;98668.97;5058791;28;20849;-77
2022/07/02 02:11:52;;;;;;;7.83;6.40;;;11.80;99.90;;;10.56;100.00;98671.41;5058635;28;20467;-76
2022/07/02 02:14:21;;;;;;;6.53;5.93;;;11.80;99.90;;;10.61;100.00;98676.22;5064271;28;20471;-77
2022/07/02 02:16:48;;;;;;;11.40;5.80;;;11.70;99.90;;;10.63;100.00;98671.44;5061146;28;20570;-75
2022/07/02 02:19:16;;;;;;;7.33;6.53;;;11.70;99.90;;;10.59;99.83;98679.09;5055975;28;21011;-75
2022/07/02 02:21:43;;;;;;;6.60;6.00;;;11.70;99.90;;;10.53;100.00;98670.97;5055898;28;20500;-76
2022/07/02 02:24:10;;;;;;;7.10;6.20;;;11.70;99.90;;;10.51;99.99;98675.72;5067783;28;20460;-76
2022/07/02 02:26:38;;;;;;;6.47;5.90;;;11.70;99.90;;;10.57;100.00;98674.97;5056705;28;20475;-77
2022/07/02 02:29:05;;;;;;;6.57;6.00;;;11.70;99.90;;;10.49;100.00;98684.88;5059338;28;20471;-77
2022/07/02 02:31:34;;;;;;;7.77;6.77;;;11.60;99.90;;;10.52;100.00;98680.09;5059644;28;20463;-78
2022/07/02 02:34:01;;;;;;;6.30;5.80;;;11.60;99.90;;;10.52;100.00;98685.50;5057702;28;20466;-78
2022/07/02 02:36:29;;;;;;;7.20;6.60;;;11.60;99.90;;;10.39;100.00;98687.09;5057609;28;20596;-77
2022/07/02 02:38:56;;;;;;;9.60;6.43;;;11.60;99.90;;;10.35;100.00;98680.38;5053411;28;20492;-78
2022/07/02 02:41:23;;;;;;;6.80;6.10;;;11.60;99.90;;;10.39;100.00;98692.50;5053029;28;20503;-78
2022/07/02 02:43:51;;;;;;;6.73;6.13;;;11.60;99.90;;;10.39;100.00;98687.09;5049046;28;20464;-77
2022/07/02 02:46:18;;;;;;;7.50;6.80;;;11.60;99.90;;;10.36;100.00;98692.88;5058309;28;20455;-76
2022/07/02 02:48:47;;;;;;;7.47;6.77;;;11.50;99.90;;;10.26;100.00;98690.50;5053676;28;21198;-76
2022/07/02 02:51:15;;;;;;;9.07;6.63;;;11.50;99.90;;;10.36;99.97;98687.47;5061652;28;20468;-76
2022/07/02 02:53:43;;;;;;;6.60;5.93;;;11.50;99.90;;;10.34;99.17;98687.69;5055161;28;20468;-75
2022/07/02 02:56:11;;;;;;;7.23;6.60;;;11.50;99.90;;;10.31;99.34;98684.53;5055797;28;20508;-77
2022/07/02 02:58:39;;;;;;;6.67;6.07;;;11.50;99.90;;;10.29;99.42;98683.88;5053719;28;20493;-77
2022/07/02 03:01:06;;;;;;;6.73;6.10;;;11.50;99.90;;;10.14;99.51;98681.28;5058328;28;20469;-77
2022/07/02 03:03:33;;;;;;;7.27;6.63;;;11.40;99.90;;;10.15;99.99;98691.91;5052168;28;20467;-78
2022/07/02 03:06:03;;;;;;;7.43;6.77;;;11.40;99.90;;;10.07;100.00;98687.47;5056069;28;21116;-78
2022/07/02 03:08:30;;;;;;;10.60;6.57;;;11.30;99.90;;;10.06;100.00;98682.25;5053343;28;20494;-77
2022/07/02 03:10:57;;;;;;;6.37;5.70;;;11.30;99.90;;;10.17;100.00;98684.44;5055289;28;20506;-76
2022/07/02 03:13:25;;;;;;;6.90;6.20;;;11.30;99.90;;;10.15;100.00;98686.50;5072747;28;20461;-76
2022/07/02 03:15:52;;;;;;;7.80;7.00;;;11.30;99.90;;;10.18;100.00;98691.50;5053679;28;20490;-76
2022/07/02 03:18:20;;;;;;;7.37;6.67;;;11.30;99.90;;;10.12;99.20;98686.91;5069630;28;20463;-77
2022/07/02 03:20:47;;;;;;;6.47;5.87;;;11.30;99.90;;;10.04;100.00;98697.81;5051824;28;20464;-76
2022/07/02 03:23:16;;;;;;;6.77;6.17;;;11.30;99.90;;;10.05;100.00;98708.44;5056913;28;20889;-77
2022/07/02 03:25:43;;;;;;;7.23;6.30;;;11.20;99.90;;;9.73;100.00;98666.63;5055442;28;20484;-76
2022/07/02 03:28:11;;;;;;;7.03;6.33;;;11.20;99.90;;;10.00;100.00;98702.78;5056483;28;20467;-77
2022/07/02 03:30:38;;;;;;;7.33;6.60;;;11.20;99.90;;;9.69;100.00;98659.97;5070878;28;20499;-77
2022/07/02 03:33:05;;;;;;;6.60;6.07;;;11.20;99.90;;;10.04;99.57;98700.53;5060183;28;20462;-77
2022/07/02 03:35:33;;;;;;;7.00;6.30;;;11.20;99.90;;;10.07;99.28;98705.53;5063517;28;20471;-76
2022/07/02 03:38:01;;;;;;;6.93;6.33;;;11.30;99.90;;;9.96;99.66;98703.38;5049873;28;20495;-75
2022/07/02 03:40:31;;;;;;;5.93;5.50;;;11.30;99.90;;;10.06;99.62;98725.47;5051308;28;20462;-76
2022/07/02 03:42:58;;;;;;;7.10;6.40;;;11.30;99.90;;;10.06;98.68;98717.34;5054076;28;20457;-77
2022/07/02 03:45:25;;;;;;;6.63;6.13;;;11.20;99.90;;;10.07;99.09;98722.56;5055247;28;20457;-77
2022/07/02 03:47:53;;;;;;;6.90;6.20;;;11.30;99.90;;;10.05;98.42;98729.19;5051330;28;20530;-76
2022/07/02 03:50:20;;;;;;;8.20;6.30;;;11.30;99.90;;;9.96;98.44;98708.78;5060077;28;20934;-77
2022/07/02 03:52:47;;;;;;;6.50;6.00;;;11.20;99.90;;;10.09;98.24;98719.69;5045980;28;20464;-76
2022/07/02 03:55:17;;;;;;;6.33;5.77;;;11.30;99.90;;;10.14;98.05;98719.94;5054359;28;20489;-77
2022/07/02 03:57:45;;;;;;;5.87;5.37;;;11.40;99.90;;;10.17;97.61;98721.41;5054083;28;20468;-76
2022/07/02 04:00:14;;;;;;;6.47;5.87;;;11.40;99.90;;;10.24;97.39;98733.09;5057433;28;20994;-77
2022/07/02 04:02:41;;;;;;;6.33;5.30;;;11.50;99.90;;;10.28;97.82;98725.44;5054981;28;20802;-77
2022/07/02 04:05:09;;;;;;;5.90;5.50;;;11.40;99.90;;;10.34;97.47;98721.94;5056696;28;20543;-77
2022/07/02 04:07:36;;;;;;;5.90;5.40;;;11.50;99.90;;;10.52;97.12;98734.13;5064549;28;20467;-78
2022/07/02 04:10:05;;;;;;;5.83;5.40;;;11.70;99.90;;;11.26;92.87;98729.94;5054671;28;20490;-77
2022/07/02 04:12:33;;;;;;;5.03;4.63;;;12.30;98.60;;;11.47;87.97;98666.75;5048204;28;20458;-77
2022/07/02 04:15:02;;;;;;;4.53;4.13;;;13.10;92.50;;;12.39;85.14;98719.53;5051443;28;20469;-77
2022/07/02 04:17:29;;;;;;;6.00;5.50;;;13.70;90.40;;;12.53;82.21;98678.84;5055463;28;21129;-77
2022/07/02 04:19:57;;;;;;;4.73;4.27;;;14.30;87.20;;;13.14;80.45;98720.19;5055044;28;20560;-77
2022/07/02 04:22:24;;;;;;;4.47;3.90;;;14.70;85.20;;;13.55;78.31;98728.97;5055796;28;20459;-79
2022/07/02 04:24:52;;;;;;;4.20;3.90;;;15.10;83.90;;;13.64;77.28;98721.41;5053470;28;21238;-78
2022/07/02 04:27:19;;;;;;;10.93;4.33;;;15.40;82.70;;;13.87;76.41;98721.66;5055269;28;20604;-78
2022/07/02 04:29:46;;;;;;;4.40;3.87;;;15.60;82.00;;;14.23;75.60;98723.91;5059817;28;20471;-78
2022/07/02 04:32:18;;;;;;;4.67;4.37;;;15.90;81.40;;;14.35;73.94;98708.56;5059919;28;20502;-77
2022/07/02 04:34:45;;;;;;;4.73;4.33;;;16.20;80.30;;;14.71;73.21;98717.84;5058586;28;20464;-77
2022/07/02 04:37:13;;;;;;;4.03;3.73;;;16.50;80.20;;;14.92;72.11;98717.63;5048464;28;20473;-75
2022/07/02 04:39:40;;;;;;;4.13;3.43;;;16.70;79.30;;;14.66;73.43;98728.53;5055951;28;20448;-76
2022/07/02 04:42:07;;;;;;;3.80;3.50;;;16.60;79.40;;;15.31;70.99;98715.47;5061147;28;20482;-76
2022/07/02 04:44:35;;;;;;;3.87;3.53;;;16.80;79.50;;;15.81;69.45;98722.53;5056387;28;20585;-74
2022/07/02 04:47:02;;;;;;;3.93;3.63;;;17.20;78.60;;;16.81;65.48;98707.47;5047300;28;20463;-76
2022/07/02 04:49:32;;;;;;;3.83;3.53;;;17.90;77.50;;;17.18;63.15;98717.28;5056416;28;20475;-75
2022/07/02 04:52:00;;;;;;;4.27;3.60;;;18.50;75.30;;;16.59;66.18;98724.44;5047192;28;20561;-76
2022/07/02 04:54:27;;;;;;;3.90;3.60;;;18.20;75.50;;;16.54;65.82;98721.59;5058554;28;20528;-75
2022/07/02 04:56:54;;;;;;;4.50;4.10;;;18.20;75.30;;;16.58;64.83;98728.22;5054655;28;20492;-74
2022/07/02 04:59:23;;;;;;;4.17;3.87;;;18.50;74.10;;;16.28;66.32;98731.88;5058327;28;20466;-74
2022/07/02 05:01:51;;;;;;;4.67;3.63;;;18.20;74.40;;;16.44;66.26;98727.66;5049910;28;20546;-74
2022/07/02 05:04:19;;;;;;;4.50;4.10;;;18.30;74.40;;;16.98;64.75;98730.22;5051740;28;20468;-75
2022/07/02 05:06:48;;;;;;;3.97;3.67;;;18.40;74.40;;;16.51;64.99;98687.44;5038865;28;20985;-74
2022/07/02 05:09:15;;;;;;;4.90;3.63;;;18.50;74.10;;;17.79;62.32;98728.53;5053088;28;20478;-74
2022/07/02 05:11:44;;;;;;;5.30;3.90;;;18.90;73.50;;;19.01;58.44;98731.03;5052827;28;20494;-75
2022/07/02 05:14:11;;;;;;;3.97;3.67;;;19.90;72.10;;;17.99;60.72;98736.28;5047288;28;20514;-75
2022/07/02 05:16:39;;;;;;;3.77;3.13;;;19.80;70.90;;;18.10;60.10;98733.75;5048982;28;20470;-77
2022/07/02 05:19:06;;;;;;;3.93;3.63;;;19.70;70.70;;;18.33;59.50;98737.41;5052842;28;20462;-77
2022/07/02 05:21:33;;;;;;;5.23;3.87;;;20.00;70.30;;;18.82;58.38;98739.50;5052284;28;20464;-75
2022/07/02 05:24:03;;;;;;;3.67;3.37;;;20.10;70.20;;;19.78;56.41;98731.91;5057865;28;20472;-76
2022/07/02 05:26:30;;;;;;;3.83;3.57;;;20.60;69.80;;;19.55;56.06;98727.56;5058854;28;20461;-75
2022/07/02 05:28:57;;;;;;;3.70;3.50;;;21.10;68.40;;;19.02;57.54;98738.16;5073085;28;20456;-76
2022/07/02 05:31:25;;;;;;;3.47;3.17;;;20.50;68.70;;;19.60;57.02;98729.53;5056865;28;20919;-76
2022/07/02 05:33:52;;;;;;;3.50;3.20;;;20.70;68.80;;;20.45;54.53;98726.22;5056014;28;20468;-75
2022/07/02 05:36:19;;;;;;;3.27;2.97;;;21.60;67.60;;;20.01;54.77;98738.22;5057253;28;20469;-77
2022/07/02 05:38:46;;;;;;;4.50;3.27;;;21.70;66.50;;;19.42;56.73;98737.03;5058844;28;20474;-76
2022/07/02 05:41:15;;;;;;;5.53;3.60;;;21.10;67.10;;;20.43;54.03;98738.56;5069593;28;20460;-77
2022/07/02 05:43:42;;;;;;;5.60;3.87;;;21.30;67.10;;;20.82;52.91;98743.78;5056152;28;20482;-78
2022/07/02 05:46:10;;;;;;;3.93;3.63;;;21.80;66.30;;;19.82;55.76;98744.03;5052747;28;20960;-77
2022/07/02 05:48:37;;;;;;;3.80;3.50;;;21.60;66.00;;;18.74;58.93;98748.16;5060246;28;20463;-79
2022/07/02 05:51:05;;;;;;;6.30;3.97;;;20.60;66.80;;;19.64;57.70;98744.41;5058754;28;20462;-71
2022/07/02 05:53:32;;;;;;;3.77;3.47;;;20.80;68.20;;;20.46;55.02;98751.75;5057155;28;20486;-75
2022/07/02 05:56:00;;;;;;;3.83;3.10;;;21.50;66.80;;;20.61;54.25;98745.53;5035399;28;20488;-71
2022/07/02 05:58:28;;;;;;;4.50;3.13;;;22.10;65.70;;;20.46;54.34;98754.50;5047708;28;20454;-83
2022/07/02 06:00:55;;;;;;;3.80;3.50;;;22.00;65.40;;;20.37;54.91;98746.75;5084632;28;20495;-78
2022/07/02 06:03:23;;;;;;;3.33;3.03;;;21.80;65.90;;;21.45;51.95;98742.97;5081167;28;20467;-77
2022/07/02 06:08:44;;;;;;;3.40;2.90;;;22.90;64.80;;;21.52;51.08;98690.50;5077702;28;20616;-83
2022/07/02 06:11:11;;;;;;;3.23;2.93;;;23.20;63.30;;;20.86;52.89;98706.47;5075200;28;20450;-78
2022/07/02 06:13:40;;;;;;;3.23;3.03;;;22.50;64.10;;;21.39;52.24;98722.06;5084003;28;21191;-77
2022/07/02 06:16:08;;;;;;;3.97;3.47;;;23.00;64.00;;;20.61;54.79;98742.78;5071259;28;20479;-81
2022/07/02 06:18:35;;;;;;;5.17;3.00;;;22.80;63.80;;;20.29;55.88;98735.41;5065516;28;20459;-85
2022/07/02 06:21:03;;;;;;;4.50;2.60;;;22.30;64.40;;;19.90;56.55;98709.00;5070402;28;20462;-82
2022/07/02 06:23:31;;;;;;;3.00;2.80;;;22.10;64.90;;;20.47;55.63;98742.44;5077188;28;20556;-82
2022/07/02 06:25:58;;;;;;;2.77;2.57;;;22.30;64.80;;;21.60;52.93;98738.63;5052504;28;20475;-79
2022/07/02 06:28:26;;;;;;;2.77;2.50;;;22.80;64.50;;;20.44;55.76;98729.25;5061638;28;20467;-83
2022/07/02 06:30:55;;;;;;;2.77;2.50;;;22.80;64.00;;;19.93;57.21;98736.78;5069998;28;20452;-82
2022/07/02 06:33:22;;;;;;;2.60;2.40;;;22.10;64.90;;;19.06;60.21;98740.13;5085772;28;20459;-87
2022/07/02 06:35:50;;;;;;;4.67;2.70;;;21.00;66.70;;;18.12;62.98;98743.38;5067400;28;20468;-89
2022/07/02 06:38:17;;;;;;;4.43;2.80;;;20.00;68.50;;;17.49;65.67;98737.81;5062003;28;20995;-87
2022/07/02 06:40:46;;;;;;;2.67;2.40;;;19.00;71.30;;;17.78;65.66;98743.28;5059373;28;20449;-75
2022/07/02 06:43:13;;;;;;;5.27;2.63;;;18.90;73.30;;;17.71;66.30;98737.16;5050730;28;20445;-74
2022/07/02 06:45:41;;;;;;;3.00;2.20;;;18.70;74.30;;;17.75;65.45;98732.84;5052612;28;20446;-76
2022/07/02 06:48:09;;;;;;;2.77;2.57;;;18.80;74.30;;;17.46;66.53;98730.13;5071508;28;20464;-77
2022/07/02 06:50:37;;;;;;;4.53;2.13;;;18.50;75.20;;;17.50;66.57;98731.28;5058369;28;20982;-77
2022/07/02 06:53:04;;;;;;;1.87;1.77;;;18.50;75.30;;;17.54;65.72;98724.28;5053785;28;20573;-77
2022/07/02 06:55:31;;;;;;;3.30;2.40;;;18.60;75.10;;;17.63;65.33;98737.53;5055921;28;20464;-78
2022/07/02 06:57:59;;;;;;;2.03;1.83;;;18.50;75.30;;;17.65;65.10;98738.09;5056694;28;20479;-78
2022/07/02 07:00:26;;;;;;;2.20;2.10;;;18.60;74.90;;;17.67;64.82;98741.44;5055706;28;20983;-77
2022/07/02 07:02:53;;;;;;;2.10;2.00;;;18.60;74.70;;;17.67;63.85;98736.81;5051772;28;21108;-76
2022/07/02 07:05:22;;;;;;;2.33;2.00;;;18.60;74.10;;;17.69;63.86;98723.72;5053681;28;20537;-78
2022/07/02 07:07:50;;;;;;;2.30;2.10;;;18.70;73.90;;;17.97;61.63;98732.16;5055677;28;20452;-76
2022/07/02 07:10:17;;;;;;;2.23;1.70;;;18.90;72.70;;;18.05;61.49;98737.22;5054377;28;20456;-77
2022/07/02 07:12:44;;;;;;;2.17;1.67;;;19.00;72.30;;;17.84;61.85;98727.81;5051066;28;20460;-76
2022/07/02 07:15:12;;;;;;;2.40;1.77;;;18.90;72.10;;;18.09;61.95;98743.84;5060156;28;20449;-76
2022/07/02 07:17:39;;;;;;;1.83;1.70;;;19.00;72.50;;;17.92;62.65;98742.97;5069531;28;21165;-76
2022/07/02 07:20:16;;;;;;;2.53;1.70;;;18.80;72.80;;;18.12;61.56;98740.66;5050716;28;20465;-76
2022/07/02 07:22:46;;;;;;;1.80;1.70;;;19.10;72.40;;;18.11;61.44;98740.88;5050144;28;20457;-76
2022/07/02 07:25:13;;;;;;;2.03;1.93;;;19.10;72.20;;;18.41;59.93;98729.59;5045176;28;20453;-76
2022/07/02 07:27:42;;;;;;;1.70;1.60;;;19.40;71.80;;;18.72;59.27;98734.72;5057511;28;20567;-78
2022/07/02 07:30:11;;;;;;;1.83;1.73;;;19.60;71.10;;;18.65;58.79;98745.84;5049896;28;20480;-77
2022/07/02 07:32:39;;;;;;;2.07;1.50;;;19.70;70.20;;;18.44;58.41;98743.88;5050217;28;20980;-78
2022/07/02 07:35:08;;;;;;;2.00;1.67;;;19.50;69.30;;;18.50;57.94;98748.34;5049171;28;20852;-76
2022/07/02 07:37:36;;;;;;;1.70;1.60;;;19.50;68.70;;;18.34;57.77;98748.09;5052447;28;20483;-77
2022/07/02 07:40:07;;;;;;;3.27;1.60;;;19.40;68.20;;;18.37;58.39;98739.41;5059834;28;20518;-78
2022/07/02 07:42:34;;;;;;;1.63;1.53;;;19.40;68.80;;;19.05;57.06;98729.47;5041780;28;20542;-78
2022/07/02 07:45:03;;;;;;;3.40;1.90;;;19.70;69.00;;;19.07;56.49;98725.38;5047560;28;20459;-79
2022/07/02 07:47:31;;;;;;;2.23;1.90;;;19.90;68.10;;;19.25;55.36;98732.44;5053661;28;20485;-77
2022/07/02 07:49:58;;;;;;;2.37;2.13;;;20.00;67.10;;;19.61;55.02;98726.56;5056092;28;20464;-79
2022/07/02 07:52:26;;;;;;;2.13;2.03;;;20.40;67.40;;;19.93;54.77;98730.44;5056627;28;20467;-79
2022/07/02 07:54:53;;;;;;;3.10;1.70;;;20.60;67.10;;;20.07;53.12;98737.16;5052008;28;20451;-79
2022/07/02 07:57:22;;;;;;;2.10;1.60;;;20.80;66.00;;;19.70;53.41;98731.56;5048490;28;20468;-80
2022/07/02 07:59:49;;;;;;;2.53;1.70;;;20.70;65.10;;;19.60;52.89;98726.78;5052253;28;20520;-78
2022/07/02 08:02:18;;;;;;;1.80;1.70;;;20.60;64.20;;;18.95;52.47;98683.56;5053865;28;20470;-77
2022/07/02 08:04:45;;;;;;;2.03;1.60;;;20.30;63.20;;;19.58;53.51;98723.50;5047492;28;20505;-77
2022/07/02 08:07:12;;;;;;;1.70;1.60;;;20.40;64.30;;;19.88;52.12;98741.34;5052257;28;20509;-78
2022/07/02 08:09:40;;;;;;;1.47;1.37;;;20.70;64.00;;;19.81;51.08;98725.94;5050955;28;20460;-77
2022/07/02 08:12:08;;;;;;;1.60;1.50;;;20.70;62.70;;;19.90;52.54;98734.53;5061939;28;20467;-78
2022/07/02 08:14:37;;;;;;;2.47;1.70;;;20.70;63.80;;;20.28;51.55;98726.38;5050760;28;21028;-77
2022/07/02 08:17:05;;;;;;;2.20;2.10;;;21.00;64.10;;;20.08;51.05;98733.31;5049610;28;20482;-80
2022/07/02 08:19:32;;;;;;;1.73;1.63;;;21.10;62.40;;;20.01;50.99;98726.41;5046853;28;20457;-79
2022/07/02 08:22:00;;;;;;;2.73;2.00;;;20.80;62.10;;;20.31;50.40;98728.59;5052784;28;20457;-79
2022/07/02 08:24:27;;;;;;;1.90;1.80;;;21.00;62.00;;;20.50;49.64;98730.91;5046387;28;20463;-77
2022/07/02 08:26:54;;;;;;;1.90;1.80;;;21.20;61.40;;;20.28;50.13;98736.50;5048592;28;20446;-79
2022/07/02 08:29:21;;;;;;;3.23;1.87;;;21.10;61.30;;;20.24;49.76;98737.03;5047875;28;20488;-77
2022/07/02 08:31:50;;;;;;;3.50;2.30;;;21.20;61.00;;;20.15;49.00;98721.31;5052172;28;20460;-77
2022/07/02 08:34:17;;;;;;;2.20;1.97;;;21.00;59.90;;;20.49;49.06;98732.00;5045977;28;20466;-76
2022/07/02 08:36:45;;;;;;;2.30;2.17;;;21.20;60.50;;;20.70;48.32;98726.66;5051865;28;20480;-75
2022/07/02 08:39:12;;;;;;;3.00;2.00;;;21.40;59.80;;;20.93;47.31;98720.78;5070388;28;20462;-78
2022/07/02 08:41:41;;;;;;;3.40;2.10;;;21.70;59.40;;;20.90;47.53;98707.59;5052847;28;20968;-74
2022/07/02 08:44:09;;;;;;;2.97;2.70;;;21.80;59.10;;;20.73;48.21;98710.47;5047430;28;20460;-77
2022/07/02 08:46:41;;;;;;;2.73;2.13;;;21.70;59.30;;;21.02;47.08;98712.06;5053059;28;20452;-78
2022/07/02 08:49:11;;;;;;;4.03;2.17;;;21.80;59.00;;;20.84;47.55;98710.59;5054131;28;20459;-79
2022/07/02 08:51:39;;;;;;;2.10;1.90;;;21.70;58.60;;;20.99;47.26;98698.81;5050269;28;21026;-80
2022/07/02 08:54:08;;;;;;;2.37;2.17;;;21.80;58.80;;;21.31;47.14;98709.69;5058791;28;20523;-78
2022/07/02 08:56:35;;;;;;;2.37;2.27;;;22.00;58.90;;;21.52;46.87;98702.34;5057298;28;20548;-78
2022/07/02 08:59:03;;;;;;;2.00;1.90;;;22.30;58.90;;;21.27;46.32;98707.75;5050320;28;20462;-77
2022/07/02 09:01:31;;;;;;;1.90;1.80;;;22.10;57.80;;;21.23;46.77;98701.97;5053343;28;20469;-73
2022/07/02 09:04:01;;;;;;;2.00;1.90;;;22.10;58.10;;;21.10;46.66;98700.53;5063157;28;20486;-77
2022/07/02 09:06:31;;;;;;;2.00;1.80;;;22.00;57.80;;;21.01;46.20;98691.19;5051280;28;20993;-77
2022/07/02 09:08:59;;;;;;;1.87;1.67;;;21.80;57.10;;;21.26;46.18;98695.94;5052867;28;20479;-76
2022/07/02 09:11:30;;;;;;;2.97;1.60;;;22.00;57.60;;;20.93;46.56;98692.50;5049219;28;20447;-75
2022/07/02 09:13:58;;;;;;;1.40;1.30;;;21.80;57.20;;;21.28;46.76;98684.66;5056094;28;20452;-74
2022/07/02 09:16:26;;;;;;;1.93;1.60;;;22.00;57.90;;;21.60;45.73;98686.38;5054478;28;20503;-77
2022/07/02 09:18:53;;;;;;;2.70;1.10;;;22.30;57.50;;;21.70;45.12;98696.63;5047929;28;20475;-76
2022/07/02 09:21:21;;;;;;;4.10;3.77;;;22.50;57.00;;;21.54;44.70;98690.25;5055815;28;20470;-76
2022/07/02 09:23:51;;;;;;;1.43;1.23;;;22.40;56.20;;;21.49;44.83;98693.78;5054757;28;22844;-75
2022/07/02 09:26:19;;;;;;;1.47;1.20;;;22.40;56.40;;;21.17;45.01;98694.78;5054130;28;20518;-74
2022/07/02 09:28:55;;;;;;;1.93;1.50;;;22.10;56.00;;;21.21;44.83;98688.50;5056181;28;20460;-73
2022/07/02 09:31:24;;;;;;;1.17;1.00;;;22.00;55.90;;;21.05;45.13;98684.84;5056213;28;20524;-74
2022/07/02 09:33:53;;;;;;;1.33;1.23;;;21.90;55.40;;;21.41;45.07;98673.16;5050293;28;20457;-73
2022/07/02 09:36:20;;;;;;;1.30;1.20;;;22.10;56.30;;;21.71;44.13;98688.09;5054694;28;20467;-74
2022/07/02 09:38:52;;;;;;;2.30;1.50;;;22.50;55.90;;;21.94;44.12;98680.44;5048454;28;20560;-77
2022/07/02 09:41:21;;;;;;;1.30;1.20;;;22.60;55.80;;;22.23;43.34;98685.38;5054955;28;20460;-75
2022/07/02 09:43:53;;;;;;;1.13;1.10;;;22.90;55.40;;;22.26;42.49;98679.31;5051864;28;20461;-76
2022/07/02 09:46:23;;;;;;;1.40;1.30;;;23.10;54.70;;;21.98;43.13;98684.28;5046499;28;20464;-77
2022/07/02 09:48:50;;;;;;;1.20;1.10;;;22.80;54.60;;;22.12;43.35;98661.72;5054663;28;21010;-74
2022/07/02 09:51:19;;;;;;;1.40;1.30;;;22.90;55.10;;;22.34;42.52;98669.69;5059167;28;20534;-75
2022/07/02 09:53:56;;;;;;;1.73;1.17;;;23.10;54.60;;;22.03;41.00;98665.00;5063443;28;20493;-75
2022/07/02 09:56:25;;;;;;;1.17;1.07;;;22.90;52.70;;;21.52;42.18;98666.59;5064489;28;20554;-76
2022/07/02 09:58:53;;;;;;;1.63;1.30;;;22.60;52.80;;;21.12;43.39;98661.81;5055418;28;20479;-77
2022/07/02 10:01:21;;;;;;;3.17;1.50;;;22.20;53.40;;;20.98;43.03;98647.75;5059252;28;20982;-76
2022/07/02 10:03:51;;;;;;;2.03;1.60;;;22.00;53.10;;;20.93;44.08;98610.94;5058477;28;20456;-75
2022/07/02 10:06:19;;;;;;;1.43;1.33;;;22.00;54.20;;;21.33;43.25;98651.72;5056653;28;20437;-76
2022/07/02 10:08:47;;;;;;;1.67;1.50;;;22.10;53.80;;;21.10;43.28;98656.59;5071662;28;20475;-76
2022/07/02 10:11:16;;;;;;;2.20;1.20;;;22.00;53.30;;;21.35;42.45;98650.34;5059875;28;20483;-76
2022/07/02 10:13:44;;;;;;;2.30;1.17;;;22.10;53.20;;;21.58;40.68;98650.09;5054561;28;20447;-78
2022/07/02 10:16:15;;;;;;;2.23;1.20;;;22.40;52.00;;;22.03;40.99;98654.00;5059650;28;20990;-78
2022/07/02 10:18:43;;;;;;;1.50;1.07;;;22.60;52.40;;;22.22;40.32;98657.03;5061370;28;20576;-77
2022/07/02 10:21:13;;;;;;;1.87;1.20;;;22.90;52.00;;;22.28;40.46;98654.25;5056105;28;21073;-78
2022/07/02 10:23:46;;;;;;;1.63;1.23;;;23.10;52.10;;;22.58;40.60;98653.41;5051140;28;20455;-77
2022/07/02 10:26:15;;;;;;;1.13;1.03;;;23.20;52.50;;;22.91;39.75;98631.81;5058727;28;20455;-76